Terminal Aerodrome Forecast
Issued by NWS

Current Version | Previous Version | Text Only | Print | Product List | Glossary On
Versions: 1 2 3 4 5 6 7 8 9 10 11 12 13 14 15 16 17
000
FTUS43 KAPX 291120
TAFTVC
TAF
KTVC 291120Z 2912/3012 VRB04KT 2SM -SN OVC022
      TEMPO 2912/2915 1/2SM SN VV004
     FM291500 31007KT P6SM VCSH OVC018
     FM291800 31012G22KT P6SM OVC022
     FM292200 31015G28KT P6SM VCSH OVC025
     FM300100 31014G26KT 2SM -SHSN BKN022 OVC035=

USA.gov is the U.S. government's official web portal to all federal, state and local government web resources and services.